createdAt,value
2023-01-28T00:00:22.446Z,96172.72
2023-01-28T00:05:24.046Z,96163.72
2023-01-28T00:10:28.427Z,96171.31
2023-01-28T00:15:36.008Z,96178.28
2023-01-28T00:20:37.580Z,96181.59
2023-01-28T00:25:39.201Z,96186.19
2023-01-28T00:30:40.781Z,96183.94
2023-01-28T00:35:44.601Z,96188.84
2023-01-28T00:40:49.169Z,96190.13
2023-01-28T00:45:50.755Z,96183.94
2023-01-28T00:50:53.555Z,96191.53
2023-01-28T00:55:55.259Z,96194.19
2023-01-28T01:00:56.794Z,96187.66
2023-01-28T01:05:58.706Z,96191.94
2023-01-28T01:11:07.110Z,96196.66
2023-01-28T01:16:13.497Z,96193.69
2023-01-28T01:21:19.643Z,96196.69
2023-01-28T01:26:24.897Z,96206.69
2023-01-28T01:31:28.983Z,96199.53
2023-01-28T01:36:33.947Z,96209.69
2023-01-28T01:41:35.541Z,96218.84
2023-01-28T01:46:50.747Z,96216.94
2023-01-28T01:52:07.492Z,96217.44
2023-01-28T01:57:16.082Z,96221.25
2023-01-28T02:02:20.363Z,96217.31
2023-01-28T02:07:21.955Z,96213.06
2023-01-28T02:12:32.700Z,96214.00
2023-01-28T02:17:39.304Z,96220.66
2023-01-28T02:23:18.065Z,96219.09
2023-01-28T02:28:40.995Z,96212.59
2023-01-28T02:34:17.730Z,96226.81
2023-01-28T02:39:24.726Z,96244.06
2023-01-28T02:44:29.455Z,96249.31
2023-01-28T02:49:38.437Z,96257.22
2023-01-28T02:54:45.538Z,96259.59
2023-01-28T03:00:02.961Z,96258.63
2023-01-28T03:05:15.845Z,96251.84
2023-01-28T03:10:21.711Z,96255.16
2023-01-28T03:15:50.590Z,96254.38
2023-01-28T03:21:16.936Z,96249.16
2023-01-28T03:26:42.910Z,96252.94
2023-01-28T03:32:03.374Z,96256.72
2023-01-28T03:37:11.963Z,96255.44
2023-01-28T03:42:37.940Z,96260.47
2023-01-28T03:48:00.776Z,96251.56
2023-01-28T03:53:16.423Z,96265.34
2023-01-28T03:58:46.305Z,96269.47
2023-01-28T04:03:51.785Z,96271.66
2023-01-28T04:08:59.584Z,96266.88
2023-01-28T04:14:15.232Z,96268.13
2023-01-28T04:19:30.675Z,96282.06
2023-01-28T04:24:33.480Z,96283.19
2023-01-28T04:29:35.019Z,96284.75
2023-01-28T04:35:00.513Z,96286.56
2023-01-28T04:40:13.780Z,96287.84
2023-01-28T04:45:17.622Z,96297.69
2023-01-28T04:50:44.429Z,96297.41
2023-01-28T04:56:08.046Z,96302.81
2023-01-28T05:01:10.787Z,96301.25
2023-01-28T05:06:12.472Z,96300.13
2023-01-28T05:11:17.042Z,96296.16
2023-01-28T05:16:21.808Z,96299.31
2023-01-28T05:21:23.493Z,96296.78
2023-01-28T05:26:33.856Z,96294.09
2023-01-28T05:31:36.139Z,96296.00
2023-01-28T05:36:41.216Z,96298.38
2023-01-28T05:41:58.640Z,96294.25
2023-01-28T05:47:01.829Z,96304.06
2023-01-28T05:52:24.241Z,96301.56
2023-01-28T05:57:28.361Z,96311.38
2023-01-28T06:02:32.713Z,96322.78
2023-01-28T06:07:37.664Z,96316.75
2023-01-28T06:12:43.391Z,96316.44
2023-01-28T06:18:12.190Z,96328.94
2023-01-28T06:23:14.111Z,96331.63
2023-01-28T06:28:24.611Z,96333.53
2023-01-28T06:33:30.825Z,96344.00
2023-01-28T06:38:37.256Z,96347.59
2023-01-28T06:43:38.770Z,96353.97
2023-01-28T06:48:42.653Z,96364.09
2023-01-28T06:53:46.473Z,96369.47
2023-01-28T06:58:49.014Z,96358.22
2023-01-28T07:03:52.902Z,96373.59
2023-01-28T07:08:56.820Z,96380.25
2023-01-28T07:14:05.122Z,96380.88
2023-01-28T07:19:06.594Z,96388.78
2023-01-28T07:24:08.431Z,96397.50
2023-01-28T07:29:11.108Z,96395.44
2023-01-28T07:34:12.907Z,96392.75
2023-01-28T07:39:17.439Z,96401.47
2023-01-28T07:44:18.946Z,96407.94
2023-01-28T07:49:22.805Z,96406.38
2023-01-28T07:54:24.348Z,96403.34
2023-01-28T07:59:28.131Z,96403.19
2023-01-28T08:04:32.956Z,96410.19
2023-01-28T08:09:34.647Z,96409.53
2023-01-28T08:14:38.686Z,96408.13
2023-01-28T08:19:40.187Z,96408.75
2023-01-28T08:24:41.773Z,96421.72
2023-01-28T08:29:43.972Z,96427.25
2023-01-28T08:34:46.527Z,96429.34
2023-01-28T08:39:50.860Z,96435.84
2023-01-28T08:44:52.356Z,96430.31
2023-01-28T08:49:54.040Z,96430.16
2023-01-28T08:54:58.920Z,96423.84
2023-01-28T09:00:07.787Z,96435.88
2023-01-28T09:05:15.293Z,96436.66
2023-01-28T09:10:20.560Z,96444.88
2023-01-28T09:15:25.285Z,96439.19
2023-01-28T09:20:27.666Z,96443.16
2023-01-28T09:25:32.409Z,96446.16
2023-01-28T09:30:37.258Z,96445.84
2023-01-28T09:35:39.079Z,96455.50
2023-01-28T09:40:45.521Z,96456.47
2023-01-28T09:45:55.627Z,96459.78
2023-01-28T09:50:57.401Z,96456.16
2023-01-28T09:56:07.270Z,96467.38
2023-01-28T10:01:40.899Z,96458.19
2023-01-28T10:06:56.525Z,96468.97
2023-01-28T10:12:23.996Z,96465.66
2023-01-28T10:17:42.669Z,96464.22
2023-01-28T10:23:15.599Z,96467.38
2023-01-28T10:28:29.888Z,96455.47
2023-01-28T10:33:37.789Z,96462.78
2023-01-28T10:38:39.744Z,96465.66
2023-01-28T10:43:42.683Z,96459.44
2023-01-28T10:48:57.483Z,96462.97
2023-01-28T10:54:05.994Z,96452.34
2023-01-28T10:59:27.385Z,96458.53
2023-01-28T11:04:32.202Z,96455.66
2023-01-28T11:09:46.309Z,96454.53
2023-01-28T11:15:06.853Z,96452.78
2023-01-28T11:20:25.635Z,96457.72
2023-01-28T11:25:34.782Z,96452.66
2023-01-28T11:30:40.356Z,96459.63
2023-01-28T11:35:42.558Z,96457.09
2023-01-28T11:41:05.405Z,96457.22
2023-01-28T11:46:13.060Z,96456.91
2023-01-28T11:51:18.869Z,96457.88
2023-01-28T11:56:34.271Z,96447.72
2023-01-28T12:01:51.244Z,96445.50
2023-01-28T12:07:18.508Z,96449.16
2023-01-28T12:13:11.200Z,96439.00
2023-01-28T12:18:51.185Z,96449.78
2023-01-28T12:24:22.792Z,96433.44
2023-01-28T12:29:38.950Z,96427.56
2023-01-28T12:35:00.422Z,96440.41
2023-01-28T12:40:26.494Z,96443.28
2023-01-28T12:45:41.057Z,96439.94
2023-01-28T12:50:53.126Z,96443.28
2023-01-28T12:56:19.194Z,96436.94
2023-01-28T13:01:47.530Z,96434.56
2023-01-28T13:07:05.597Z,96435.66
2023-01-28T13:12:13.619Z,96436.44
2023-01-28T13:17:30.230Z,96437.72
2023-01-28T13:22:35.210Z,96448.22
2023-01-28T13:27:36.951Z,96443.63
2023-01-28T13:32:40.786Z,96445.19
2023-01-28T13:37:47.017Z,96452.34
2023-01-28T13:43:03.301Z,96449.34
2023-01-28T13:48:23.940Z,96462.97
2023-01-28T13:53:39.721Z,96468.66
2023-01-28T13:59:28.307Z,96476.44
2023-01-28T14:05:18.431Z,96473.56
2023-01-28T14:10:33.859Z,96477.06
2023-01-28T14:15:56.480Z,96477.69
2023-01-28T14:21:09.299Z,96483.88
2023-01-28T14:26:47.655Z,96478.03
2023-01-28T14:31:52.887Z,96483.25
2023-01-28T14:37:06.711Z,96490.38
2023-01-28T14:42:25.610Z,96493.38
2023-01-28T14:47:49.119Z,96492.59
2023-01-28T14:52:53.526Z,96490.53
2023-01-28T14:58:05.677Z,96501.31
2023-01-28T15:03:24.844Z,96498.78
2023-01-28T15:08:26.906Z,96510.19
2023-01-28T15:13:38.699Z,96512.91
2023-01-28T15:18:44.799Z,96527.63
2023-01-28T15:23:58.910Z,96527.81
2023-01-28T15:29:05.973Z,96532.25
2023-01-28T15:34:16.655Z,96535.72
2023-01-28T15:39:24.289Z,96539.38
2023-01-28T15:44:34.293Z,96548.56
2023-01-28T15:49:43.473Z,96555.88
2023-01-28T15:54:52.609Z,96557.13
2023-01-28T16:00:06.317Z,96556.19
2023-01-28T16:05:38.701Z,96556.66
2023-01-28T16:10:40.272Z,96566.81
2023-01-28T16:15:47.665Z,96575.38
2023-01-28T16:20:51.734Z,96581.41
2023-01-28T16:26:06.493Z,96590.09
2023-01-28T16:31:11.230Z,96592.16
2023-01-28T16:36:14.632Z,96599.28
2023-01-28T16:41:42.170Z,96607.53
2023-01-28T16:46:53.024Z,96595.63
2023-01-28T16:51:55.320Z,96599.13
2023-01-28T16:56:57.998Z,96602.31
2023-01-28T17:01:59.490Z,96601.69
2023-01-28T17:07:02.339Z,96603.25
2023-01-28T17:12:04.197Z,96602.47
2023-01-28T17:17:10.804Z,96599.44
2023-01-28T17:22:14.777Z,96601.16
2023-01-28T17:27:16.269Z,96606.09
2023-01-28T17:32:17.802Z,96599.75
2023-01-28T17:37:19.295Z,96605.16
2023-01-28T17:42:20.798Z,96615.63
2023-01-28T17:47:26.909Z,96620.38
2023-01-28T17:52:29.280Z,96623.41
2023-01-28T17:57:30.792Z,96614.97
2023-01-28T18:02:33.472Z,96614.50
2023-01-28T18:07:39.729Z,96609.44
2023-01-28T18:12:41.343Z,96615.13
2023-01-28T18:17:42.883Z,96621.44
2023-01-28T18:22:46.946Z,96623.34
2023-01-28T18:27:49.333Z,96624.63
2023-01-28T18:32:50.891Z,96628.59
2023-01-28T18:37:56.694Z,96616.88
2023-01-28T18:43:05.545Z,96617.84
2023-01-28T18:48:07.773Z,96623.59
2023-01-28T18:53:09.288Z,96630.56
2023-01-28T18:58:10.872Z,96628.31
2023-01-28T19:03:12.587Z,96636.19
2023-01-28T19:08:18.780Z,96631.28
2023-01-28T19:13:20.291Z,96636.50
2023-01-28T19:18:27.139Z,96637.75
2023-01-28T19:23:40.937Z,96629.53
2023-01-28T19:28:52.343Z,96650.81
2023-01-28T19:33:56.033Z,96660.34
2023-01-28T19:39:08.040Z,96664.03
2023-01-28T19:44:09.785Z,96664.03
2023-01-28T19:49:14.142Z,96662.41
2023-01-28T19:54:18.458Z,96667.75
2023-01-28T19:59:20.009Z,96674.22
2023-01-28T20:04:26.055Z,96674.06
2023-01-28T20:09:30.176Z,96681.16
2023-01-28T20:14:31.833Z,96679.88
2023-01-28T20:19:34.831Z,96686.38
2023-01-28T20:24:36.354Z,96683.69
2023-01-28T20:29:37.916Z,96692.56
2023-01-28T20:34:43.003Z,96695.72
2023-01-28T20:39:44.834Z,96692.31
2023-01-28T20:44:48.750Z,96705.72
2023-01-28T20:49:50.279Z,96705.53
2023-01-28T20:54:54.341Z,96711.59
2023-01-28T20:59:55.885Z,96720.00
2023-01-28T21:04:57.381Z,96712.69
2023-01-28T21:10:01.237Z,96734.41
2023-01-28T21:15:07.929Z,96732.16
2023-01-28T21:20:11.606Z,96728.00
2023-01-28T21:25:13.228Z,96719.25
2023-01-28T21:30:15.700Z,96735.38
2023-01-28T21:35:17.515Z,96719.94
2023-01-28T21:40:24.443Z,96725.81
2023-01-28T21:45:28.927Z,96728.63
2023-01-28T21:50:52.926Z,96721.56
2023-01-28T21:55:54.440Z,96728.38
2023-01-28T22:00:55.940Z,96723.78
2023-01-28T22:06:00.462Z,96720.06
2023-01-28T22:11:04.901Z,96725.00
2023-01-28T22:16:09.232Z,96730.53
2023-01-28T22:21:12.924Z,96731.72
2023-01-28T22:26:19.387Z,96735.53
2023-01-28T22:31:24.079Z,96733.94
2023-01-28T22:36:27.955Z,96727.44
2023-01-28T22:41:30.194Z,96727.34
2023-01-28T22:46:37.894Z,96718.16
2023-01-28T22:51:39.473Z,96733.00
2023-01-28T22:56:40.984Z,96717.84
2023-01-28T23:01:50.019Z,96723.72
2023-01-28T23:06:51.598Z,96713.75
2023-01-28T23:11:53.128Z,96714.25
2023-01-28T23:17:13.456Z,96736.44
2023-01-28T23:22:52.565Z,96735.16
2023-01-28T23:27:56.188Z,96750.03
2023-01-28T23:33:04.400Z,96759.78
2023-01-28T23:38:09.244Z,96750.94
2023-01-28T23:43:10.853Z,96740.50
2023-01-28T23:48:13.523Z,96729.13
2023-01-28T23:53:17.415Z,96741.94
2023-01-28T23:58:33.544Z,96747.94
